sensor_id;sensor_type;location;lat;lon;timestamp;temperature;humidity
5881;DHT22;2966;52.598;10.928;2022-07-22T00:01:56;17.80;99.90
5881;DHT22;2966;52.598;10.928;2022-07-22T00:04:23;17.80;99.90
5881;DHT22;2966;52.598;10.928;2022-07-22T00:06:49;17.80;99.90
5881;DHT22;2966;52.598;10.928;2022-07-22T00:09:16;17.80;99.90
5881;DHT22;2966;52.598;10.928;2022-07-22T00:11:44;17.80;99.90
5881;DHT22;2966;52.598;10.928;2022-07-22T00:14:11;17.80;99.90
5881;DHT22;2966;52.598;10.928;2022-07-22T00:16:38;17.80;99.90
5881;DHT22;2966;52.598;10.928;2022-07-22T00:19:05;17.70;99.90
5881;DHT22;2966;52.598;10.928;2022-07-22T00:21:32;17.70;99.90
5881;DHT22;2966;52.598;10.928;2022-07-22T00:23:59;17.70;99.90
5881;DHT22;2966;52.598;10.928;2022-07-22T00:26:25;17.70;99.90
5881;DHT22;2966;52.598;10.928;2022-07-22T00:28:54;17.70;99.90
5881;DHT22;2966;52.598;10.928;2022-07-22T00:31:20;17.80;99.90
5881;DHT22;2966;52.598;10.928;2022-07-22T00:33:50;17.70;99.90
5881;DHT22;2966;52.598;10.928;2022-07-22T00:36:17;17.70;99.90
5881;DHT22;2966;52.598;10.928;2022-07-22T00:38:43;17.70;99.90
5881;DHT22;2966;52.598;10.928;2022-07-22T00:41:10;17.70;99.90
5881;DHT22;2966;52.598;10.928;2022-07-22T00:43:57;17.80;99.90
5881;DHT22;2966;52.598;10.928;2022-07-22T00:46:24;17.80;99.90
5881;DHT22;2966;52.598;10.928;2022-07-22T00:48:54;17.80;99.90
5881;DHT22;2966;52.598;10.928;2022-07-22T00:51:22;17.90;99.90
5881;DHT22;2966;52.598;10.928;2022-07-22T00:53:49;17.90;99.90
5881;DHT22;2966;52.598;10.928;2022-07-22T00:56:17;17.90;99.90
5881;DHT22;2966;52.598;10.928;2022-07-22T00:58:46;17.90;99.90
5881;DHT22;2966;52.598;10.928;2022-07-22T01:01:14;17.90;99.90
5881;DHT22;2966;52.598;10.928;2022-07-22T01:03:41;17.90;99.90
5881;DHT22;2966;52.598;10.928;2022-07-22T01:06:10;17.90;99.90
5881;DHT22;2966;52.598;10.928;2022-07-22T01:08:37;17.90;99.90
5881;DHT22;2966;52.598;10.928;2022-07-22T01:11:08;17.90;99.90
5881;DHT22;2966;52.598;10.928;2022-07-22T01:13:35;18.00;99.90
5881;DHT22;2966;52.598;10.928;2022-07-22T01:16:02;18.00;99.90
5881;DHT22;2966;52.598;10.928;2022-07-22T01:18:30;18.00;99.90
5881;DHT22;2966;52.598;10.928;2022-07-22T01:20:59;18.00;99.90
5881;DHT22;2966;52.598;10.928;2022-07-22T01:23:26;18.00;99.90
5881;DHT22;2966;52.598;10.928;2022-07-22T01:25:53;18.00;99.90
5881;DHT22;2966;52.598;10.928;2022-07-22T01:28:19;18.00;99.90
5881;DHT22;2966;52.598;10.928;2022-07-22T01:30:46;18.00;99.90
5881;DHT22;2966;52.598;10.928;2022-07-22T01:33:15;18.10;99.90
5881;DHT22;2966;52.598;10.928;2022-07-22T01:35:42;18.10;99.90
5881;DHT22;2966;52.598;10.928;2022-07-22T01:38:10;18.10;99.90
5881;DHT22;2966;52.598;10.928;2022-07-22T01:40:37;18.10;99.90
5881;DHT22;2966;52.598;10.928;2022-07-22T01:43:04;18.10;99.90
5881;DHT22;2966;52.598;10.928;2022-07-22T01:45:31;18.00;99.90
5881;DHT22;2966;52.598;10.928;2022-07-22T01:47:58;18.00;99.90
5881;DHT22;2966;52.598;10.928;2022-07-22T01:50:25;18.00;99.90
5881;DHT22;2966;52.598;10.928;2022-07-22T01:52:51;18.00;99.90
5881;DHT22;2966;52.598;10.928;2022-07-22T01:55:19;18.00;99.90
5881;DHT22;2966;52.598;10.928;2022-07-22T01:57:46;17.90;99.90
5881;DHT22;2966;52.598;10.928;2022-07-22T02:00:14;17.90;99.90
5881;DHT22;2966;52.598;10.928;2022-07-22T02:02:40;17.90;99.90
5881;DHT22;2966;52.598;10.928;2022-07-22T02:05:08;17.90;99.90
5881;DHT22;2966;52.598;10.928;2022-07-22T02:07:35;17.90;99.90
5881;DHT22;2966;52.598;10.928;2022-07-22T02:10:02;17.90;99.90
5881;DHT22;2966;52.598;10.928;2022-07-22T02:12:30;17.90;99.90
5881;DHT22;2966;52.598;10.928;2022-07-22T02:14:57;17.90;99.90
5881;DHT22;2966;52.598;10.928;2022-07-22T02:17:24;17.90;99.90
5881;DHT22;2966;52.598;10.928;2022-07-22T02:19:50;17.90;99.90
5881;DHT22;2966;52.598;10.928;2022-07-22T02:22:17;17.90;99.90
5881;DHT22;2966;52.598;10.928;2022-07-22T02:24:44;17.90;99.90
5881;DHT22;2966;52.598;10.928;2022-07-22T02:27:11;17.90;99.90
5881;DHT22;2966;52.598;10.928;2022-07-22T02:29:39;17.90;99.90
5881;DHT22;2966;52.598;10.928;2022-07-22T02:32:06;17.90;99.90
5881;DHT22;2966;52.598;10.928;2022-07-22T02:34:33;17.90;99.90
5881;DHT22;2966;52.598;10.928;2022-07-22T02:36:59;17.90;99.90
5881;DHT22;2966;52.598;10.928;2022-07-22T02:39:26;17.90;99.90
5881;DHT22;2966;52.598;10.928;2022-07-22T02:41:53;17.90;99.90
5881;DHT22;2966;52.598;10.928;2022-07-22T02:44:19;17.90;99.90
5881;DHT22;2966;52.598;10.928;2022-07-22T02:46:47;17.90;99.90
5881;DHT22;2966;52.598;10.928;2022-07-22T02:49:14;17.90;99.90
5881;DHT22;2966;52.598;10.928;2022-07-22T02:51:41;18.00;99.90
5881;DHT22;2966;52.598;10.928;2022-07-22T02:54:07;18.00;99.90
5881;DHT22;2966;52.598;10.928;2022-07-22T02:56:34;18.00;99.90
5881;DHT22;2966;52.598;10.928;2022-07-22T02:59:03;18.00;99.90
5881;DHT22;2966;52.598;10.928;2022-07-22T03:01:33;18.00;99.90
5881;DHT22;2966;52.598;10.928;2022-07-22T03:04:01;18.00;99.90
5881;DHT22;2966;52.598;10.928;2022-07-22T03:06:28;18.00;99.90
5881;DHT22;2966;52.598;10.928;2022-07-22T03:08:55;18.00;99.90
5881;DHT22;2966;52.598;10.928;2022-07-22T03:11:21;18.00;99.90
5881;DHT22;2966;52.598;10.928;2022-07-22T03:13:48;18.10;99.90
5881;DHT22;2966;52.598;10.928;2022-07-22T03:16:15;18.10;99.90
5881;DHT22;2966;52.598;10.928;2022-07-22T03:18:41;18.10;99.90
5881;DHT22;2966;52.598;10.928;2022-07-22T03:21:09;18.10;99.90
5881;DHT22;2966;52.598;10.928;2022-07-22T03:23:36;18.10;99.90
5881;DHT22;2966;52.598;10.928;2022-07-22T03:26:03;18.10;99.90
5881;DHT22;2966;52.598;10.928;2022-07-22T03:28:30;18.10;99.90
5881;DHT22;2966;52.598;10.928;2022-07-22T03:30:56;18.10;99.90
5881;DHT22;2966;52.598;10.928;2022-07-22T03:33:23;18.10;99.90
5881;DHT22;2966;52.598;10.928;2022-07-22T03:35:50;18.00;99.90
5881;DHT22;2966;52.598;10.928;2022-07-22T03:38:18;17.90;99.90
5881;DHT22;2966;52.598;10.928;2022-07-22T03:40:44;17.80;99.90
5881;DHT22;2966;52.598;10.928;2022-07-22T03:43:11;17.60;99.90
5881;DHT22;2966;52.598;10.928;2022-07-22T03:45:38;17.60;99.90
5881;DHT22;2966;52.598;10.928;2022-07-22T03:48:05;17.50;99.90
5881;DHT22;2966;52.598;10.928;2022-07-22T03:50:31;17.50;99.90
5881;DHT22;2966;52.598;10.928;2022-07-22T03:52:58;17.40;99.90
5881;DHT22;2966;52.598;10.928;2022-07-22T03:55:29;17.40;99.90
5881;DHT22;2966;52.598;10.928;2022-07-22T03:57:56;17.40;99.90
5881;DHT22;2966;52.598;10.928;2022-07-22T04:00:23;17.40;99.90
5881;DHT22;2966;52.598;10.928;2022-07-22T04:02:49;17.30;99.90
5881;DHT22;2966;52.598;10.928;2022-07-22T04:05:16;17.40;99.90
5881;DHT22;2966;52.598;10.928;2022-07-22T04:07:43;17.30;99.90
5881;DHT22;2966;52.598;10.928;2022-07-22T04:10:09;17.40;99.90
5881;DHT22;2966;52.598;10.928;2022-07-22T04:12:40;17.40;99.90
5881;DHT22;2966;52.598;10.928;2022-07-22T04:15:08;17.40;99.90
5881;DHT22;2966;52.598;10.928;2022-07-22T04:17:35;17.40;99.90
5881;DHT22;2966;52.598;10.928;2022-07-22T04:20:02;17.40;99.90
5881;DHT22;2966;52.598;10.928;2022-07-22T04:22:30;17.40;99.90
5881;DHT22;2966;52.598;10.928;2022-07-22T04:24:56;17.40;99.90
5881;DHT22;2966;52.598;10.928;2022-07-22T04:27:23;17.40;99.90
5881;DHT22;2966;52.598;10.928;2022-07-22T04:29:51;17.40;99.90
5881;DHT22;2966;52.598;10.928;2022-07-22T04:32:18;17.40;99.90
5881;DHT22;2966;52.598;10.928;2022-07-22T04:34:45;17.40;99.90
5881;DHT22;2966;52.598;10.928;2022-07-22T04:37:11;17.40;99.90
5881;DHT22;2966;52.598;10.928;2022-07-22T04:39:38;17.40;99.90
5881;DHT22;2966;52.598;10.928;2022-07-22T04:42:05;17.40;99.90
5881;DHT22;2966;52.598;10.928;2022-07-22T04:44:32;17.40;99.90
5881;DHT22;2966;52.598;10.928;2022-07-22T04:47:00;17.40;99.90
5881;DHT22;2966;52.598;10.928;2022-07-22T04:49:26;17.40;99.90
5881;DHT22;2966;52.598;10.928;2022-07-22T04:51:53;17.40;99.90
5881;DHT22;2966;52.598;10.928;2022-07-22T04:54:22;17.40;99.90
5881;DHT22;2966;52.598;10.928;2022-07-22T04:56:48;17.40;99.90
5881;DHT22;2966;52.598;10.928;2022-07-22T04:59:15;17.30;99.90
5881;DHT22;2966;52.598;10.928;2022-07-22T05:01:42;17.20;99.90
5881;DHT22;2966;52.598;10.928;2022-07-22T05:04:10;17.20;99.90
5881;DHT22;2966;52.598;10.928;2022-07-22T05:06:36;17.20;99.90
5881;DHT22;2966;52.598;10.928;2022-07-22T05:09:03;17.20;99.90
5881;DHT22;2966;52.598;10.928;2022-07-22T05:11:30;17.20;99.90
5881;DHT22;2966;52.598;10.928;2022-07-22T05:13:57;17.20;99.90
5881;DHT22;2966;52.598;10.928;2022-07-22T05:16:23;17.20;99.90
5881;DHT22;2966;52.598;10.928;2022-07-22T05:18:50;17.20;99.90
5881;DHT22;2966;52.598;10.928;2022-07-22T05:21:18;17.20;99.90
5881;DHT22;2966;52.598;10.928;2022-07-22T05:23:45;17.20;99.90
5881;DHT22;2966;52.598;10.928;2022-07-22T05:26:12;17.20;99.90
5881;DHT22;2966;52.598;10.928;2022-07-22T05:28:38;17.20;99.90
5881;DHT22;2966;52.598;10.928;2022-07-22T05:31:05;17.20;99.90
5881;DHT22;2966;52.598;10.928;2022-07-22T05:33:31;17.20;99.90
5881;DHT22;2966;52.598;10.928;2022-07-22T05:35:59;17.20;99.90
5881;DHT22;2966;52.598;10.928;2022-07-22T05:38:27;17.10;99.90
5881;DHT22;2966;52.598;10.928;2022-07-22T05:40:54;17.10;99.90
5881;DHT22;2966;52.598;10.928;2022-07-22T05:43:21;17.10;99.90
5881;DHT22;2966;52.598;10.928;2022-07-22T05:45:47;17.10;99.90
5881;DHT22;2966;52.598;10.928;2022-07-22T05:48:14;17.10;99.90
5881;DHT22;2966;52.598;10.928;2022-07-22T05:50:41;16.80;99.90
5881;DHT22;2966;52.598;10.928;2022-07-22T05:53:07;16.80;99.90
5881;DHT22;2966;52.598;10.928;2022-07-22T05:55:35;16.80;99.90
5881;DHT22;2966;52.598;10.928;2022-07-22T05:58:02;16.70;99.90
5881;DHT22;2966;52.598;10.928;2022-07-22T06:00:29;16.70;99.90
5881;DHT22;2966;52.598;10.928;2022-07-22T06:02:55;16.70;99.90
5881;DHT22;2966;52.598;10.928;2022-07-22T06:05:22;16.70;99.90
5881;DHT22;2966;52.598;10.928;2022-07-22T06:07:49;16.70;99.90
5881;DHT22;2966;52.598;10.928;2022-07-22T06:10:16;16.80;99.90
5881;DHT22;2966;52.598;10.928;2022-07-22T06:12:44;16.80;99.90
5881;DHT22;2966;52.598;10.928;2022-07-22T06:15:10;16.70;99.90
5881;DHT22;2966;52.598;10.928;2022-07-22T06:17:37;16.80;99.90
5881;DHT22;2966;52.598;10.928;2022-07-22T06:20:05;16.80;99.90
5881;DHT22;2966;52.598;10.928;2022-07-22T06:22:32;16.80;99.90
5881;DHT22;2966;52.598;10.928;2022-07-22T06:24:58;16.80;99.90
5881;DHT22;2966;52.598;10.928;2022-07-22T06:27:25;16.60;99.90
5881;DHT22;2966;52.598;10.928;2022-07-22T06:29:53;16.60;99.90
5881;DHT22;2966;52.598;10.928;2022-07-22T06:32:20;16.50;99.90
5881;DHT22;2966;52.598;10.928;2022-07-22T06:34:46;16.40;99.90
5881;DHT22;2966;52.598;10.928;2022-07-22T06:37:13;16.40;99.90
5881;DHT22;2966;52.598;10.928;2022-07-22T06:39:40;16.30;99.90
5881;DHT22;2966;52.598;10.928;2022-07-22T06:42:07;16.30;99.90
5881;DHT22;2966;52.598;10.928;2022-07-22T06:44:34;16.30;99.90
5881;DHT22;2966;52.598;10.928;2022-07-22T06:47:02;16.40;99.90
5881;DHT22;2966;52.598;10.928;2022-07-22T06:49:29;16.30;99.90
5881;DHT22;2966;52.598;10.928;2022-07-22T06:51:56;16.30;99.90
5881;DHT22;2966;52.598;10.928;2022-07-22T06:54:22;16.30;99.90
5881;DHT22;2966;52.598;10.928;2022-07-22T06:56:49;16.20;99.90
5881;DHT22;2966;52.598;10.928;2022-07-22T06:59:16;16.30;99.90
5881;DHT22;2966;52.598;10.928;2022-07-22T07:01:42;16.50;99.90
5881;DHT22;2966;52.598;10.928;2022-07-22T07:04:10;16.60;99.90
5881;DHT22;2966;52.598;10.928;2022-07-22T07:06:37;16.70;99.90
5881;DHT22;2966;52.598;10.928;2022-07-22T07:09:04;17.00;99.90
5881;DHT22;2966;52.598;10.928;2022-07-22T07:11:30;17.00;99.90
5881;DHT22;2966;52.598;10.928;2022-07-22T07:13:57;17.00;99.90
5881;DHT22;2966;52.598;10.928;2022-07-22T07:16:24;17.10;99.90
5881;DHT22;2966;52.598;10.928;2022-07-22T07:18:56;17.20;99.90
5881;DHT22;2966;52.598;10.928;2022-07-22T07:21:24;17.30;99.90
5881;DHT22;2966;52.598;10.928;2022-07-22T07:23:51;17.20;99.90
5881;DHT22;2966;52.598;10.928;2022-07-22T07:26:20;17.30;99.90
5881;DHT22;2966;52.598;10.928;2022-07-22T07:28:49;17.30;99.90
5881;DHT22;2966;52.598;10.928;2022-07-22T07:31:17;17.20;99.90
5881;DHT22;2966;52.598;10.928;2022-07-22T07:33:47;17.30;99.90
5881;DHT22;2966;52.598;10.928;2022-07-22T07:36:13;17.30;99.90
5881;DHT22;2966;52.598;10.928;2022-07-22T07:38:42;17.20;99.90
5881;DHT22;2966;52.598;10.928;2022-07-22T07:41:08;17.30;99.90
5881;DHT22;2966;52.598;10.928;2022-07-22T07:43:36;17.20;99.90
5881;DHT22;2966;52.598;10.928;2022-07-22T07:46:03;17.20;99.90
5881;DHT22;2966;52.598;10.928;2022-07-22T07:48:29;17.10;99.90
5881;DHT22;2966;52.598;10.928;2022-07-22T07:50:56;17.10;99.90
5881;DHT22;2966;52.598;10.928;2022-07-22T07:53:23;17.10;99.90
5881;DHT22;2966;52.598;10.928;2022-07-22T07:55:51;17.10;99.90
5881;DHT22;2966;52.598;10.928;2022-07-22T07:58:18;17.20;99.90
5881;DHT22;2966;52.598;10.928;2022-07-22T08:00:45;17.40;99.90
5881;DHT22;2966;52.598;10.928;2022-07-22T08:03:12;17.50;99.90
5881;DHT22;2966;52.598;10.928;2022-07-22T08:05:39;17.60;99.90
5881;DHT22;2966;52.598;10.928;2022-07-22T08:08:07;17.60;99.90
5881;DHT22;2966;52.598;10.928;2022-07-22T08:10:34;17.70;99.90
5881;DHT22;2966;52.598;10.928;2022-07-22T08:13:02;17.70;99.90
5881;DHT22;2966;52.598;10.928;2022-07-22T08:15:31;17.80;99.90
5881;DHT22;2966;52.598;10.928;2022-07-22T08:18:01;17.90;99.90
5881;DHT22;2966;52.598;10.928;2022-07-22T08:20:29;17.70;99.90
5881;DHT22;2966;52.598;10.928;2022-07-22T08:22:56;17.60;99.90
5881;DHT22;2966;52.598;10.928;2022-07-22T08:25:24;17.60;99.90
5881;DHT22;2966;52.598;10.928;2022-07-22T08:27:51;17.60;99.90
5881;DHT22;2966;52.598;10.928;2022-07-22T08:30:19;17.60;99.90
5881;DHT22;2966;52.598;10.928;2022-07-22T08:32:48;17.70;99.90
5881;DHT22;2966;52.598;10.928;2022-07-22T08:35:15;17.70;99.90
5881;DHT22;2966;52.598;10.928;2022-07-22T08:37:44;17.70;99.90
5881;DHT22;2966;52.598;10.928;2022-07-22T08:40:13;17.80;99.90
5881;DHT22;2966;52.598;10.928;2022-07-22T08:42:41;17.90;99.90
5881;DHT22;2966;52.598;10.928;2022-07-22T08:45:11;17.90;99.90
5881;DHT22;2966;52.598;10.928;2022-07-22T08:47:39;17.80;99.90
5881;DHT22;2966;52.598;10.928;2022-07-22T08:50:06;18.10;99.90
5881;DHT22;2966;52.598;10.928;2022-07-22T08:52:34;18.40;99.90
5881;DHT22;2966;52.598;10.928;2022-07-22T08:55:03;18.90;99.90
5881;DHT22;2966;52.598;10.928;2022-07-22T08:57:29;19.20;99.90
5881;DHT22;2966;52.598;10.928;2022-07-22T08:59:58;19.10;99.90
5881;DHT22;2966;52.598;10.928;2022-07-22T09:02:26;18.90;99.90
5881;DHT22;2966;52.598;10.928;2022-07-22T09:04:57;19.00;99.90
5881;DHT22;2966;52.598;10.928;2022-07-22T09:07:28;19.10;99.90
5881;DHT22;2966;52.598;10.928;2022-07-22T09:09:55;19.10;99.90
5881;DHT22;2966;52.598;10.928;2022-07-22T09:12:22;19.30;99.90
5881;DHT22;2966;52.598;10.928;2022-07-22T09:14:51;19.30;99.90
5881;DHT22;2966;52.598;10.928;2022-07-22T09:17:26;19.10;99.90
5881;DHT22;2966;52.598;10.928;2022-07-22T09:19:55;18.90;99.90
5881;DHT22;2966;52.598;10.928;2022-07-22T09:22:36;18.60;99.90
5881;DHT22;2966;52.598;10.928;2022-07-22T09:25:24;18.60;99.90
5881;DHT22;2966;52.598;10.928;2022-07-22T09:27:53;18.60;99.90
5881;DHT22;2966;52.598;10.928;2022-07-22T09:30:22;18.70;99.90
5881;DHT22;2966;52.598;10.928;2022-07-22T09:32:51;18.70;99.90
5881;DHT22;2966;52.598;10.928;2022-07-22T09:35:22;18.50;99.90
5881;DHT22;2966;52.598;10.928;2022-07-22T09:37:51;18.40;99.90
5881;DHT22;2966;52.598;10.928;2022-07-22T09:40:20;18.40;99.90
5881;DHT22;2966;52.598;10.928;2022-07-22T09:42:50;18.40;99.90
5881;DHT22;2966;52.598;10.928;2022-07-22T09:45:18;18.40;99.90
5881;DHT22;2966;52.598;10.928;2022-07-22T09:47:46;18.30;99.90
5881;DHT22;2966;52.598;10.928;2022-07-22T09:50:22;18.30;99.90
5881;DHT22;2966;52.598;10.928;2022-07-22T09:52:51;18.30;99.90
5881;DHT22;2966;52.598;10.928;2022-07-22T09:55:20;18.50;99.90
5881;DHT22;2966;52.598;10.928;2022-07-22T09:57:48;18.60;99.90
5881;DHT22;2966;52.598;10.928;2022-07-22T10:00:17;18.70;99.90
5881;DHT22;2966;52.598;10.928;2022-07-22T10:02:48;18.60;99.90
5881;DHT22;2966;52.598;10.928;2022-07-22T10:05:16;18.60;99.90
5881;DHT22;2966;52.598;10.928;2022-07-22T10:07:45;18.60;99.90
5881;DHT22;2966;52.598;10.928;2022-07-22T10:10:14;18.60;99.90
5881;DHT22;2966;52.598;10.928;2022-07-22T10:12:42;18.60;99.90
5881;DHT22;2966;52.598;10.928;2022-07-22T10:15:13;18.60;99.90
5881;DHT22;2966;52.598;10.928;2022-07-22T10:17:42;18.70;99.90
5881;DHT22;2966;52.598;10.928;2022-07-22T10:20:11;18.70;99.90
5881;DHT22;2966;52.598;10.928;2022-07-22T10:22:52;18.60;99.90
5881;DHT22;2966;52.598;10.928;2022-07-22T10:25:22;18.50;99.90
5881;DHT22;2966;52.598;10.928;2022-07-22T10:27:53;18.50;99.90
5881;DHT22;2966;52.598;10.928;2022-07-22T10:30:22;18.50;99.90
5881;DHT22;2966;52.598;10.928;2022-07-22T10:33:06;18.60;99.90
5881;DHT22;2966;52.598;10.928;2022-07-22T10:35:35;18.70;99.90
5881;DHT22;2966;52.598;10.928;2022-07-22T10:38:09;18.90;99.90
5881;DHT22;2966;52.598;10.928;2022-07-22T10:40:51;18.90;99.90
5881;DHT22;2966;52.598;10.928;2022-07-22T10:43:19;18.70;99.90
5881;DHT22;2966;52.598;10.928;2022-07-22T10:45:49;18.70;99.90
5881;DHT22;2966;52.598;10.928;2022-07-22T10:48:18;18.90;99.90
5881;DHT22;2966;52.598;10.928;2022-07-22T10:53:44;19.40;99.90
5881;DHT22;2966;52.598;10.928;2022-07-22T10:56:21;19.60;99.90
5881;DHT22;2966;52.598;10.928;2022-07-22T10:58:57;19.40;99.90
5881;DHT22;2966;52.598;10.928;2022-07-22T11:01:27;19.30;99.90
5881;DHT22;2966;52.598;10.928;2022-07-22T11:03:55;19.20;99.90
5881;DHT22;2966;52.598;10.928;2022-07-22T11:06:26;19.30;99.90
5881;DHT22;2966;52.598;10.928;2022-07-22T11:08:55;19.20;99.90
5881;DHT22;2966;52.598;10.928;2022-07-22T11:11:34;19.00;99.90
5881;DHT22;2966;52.598;10.928;2022-07-22T11:14:08;19.10;99.90
5881;DHT22;2966;52.598;10.928;2022-07-22T11:16:37;19.10;99.90
5881;DHT22;2966;52.598;10.928;2022-07-22T11:19:05;19.20;99.90
5881;DHT22;2966;52.598;10.928;2022-07-22T11:21:33;19.30;99.90
5881;DHT22;2966;52.598;10.928;2022-07-22T11:24:04;19.30;99.90
5881;DHT22;2966;52.598;10.928;2022-07-22T11:26:38;19.40;99.90
5881;DHT22;2966;52.598;10.928;2022-07-22T11:29:06;19.50;99.90
5881;DHT22;2966;52.598;10.928;2022-07-22T11:31:33;19.60;99.90
5881;DHT22;2966;52.598;10.928;2022-07-22T11:34:06;19.60;99.90
5881;DHT22;2966;52.598;10.928;2022-07-22T11:36:34;19.50;99.90
5881;DHT22;2966;52.598;10.928;2022-07-22T11:39:02;19.40;99.90
5881;DHT22;2966;52.598;10.928;2022-07-22T11:41:30;19.30;99.90
5881;DHT22;2966;52.598;10.928;2022-07-22T11:43:59;19.30;99.90
5881;DHT22;2966;52.598;10.928;2022-07-22T11:46:27;19.30;99.90
5881;DHT22;2966;52.598;10.928;2022-07-22T11:48:55;19.30;99.90
5881;DHT22;2966;52.598;10.928;2022-07-22T11:51:28;19.20;99.90
5881;DHT22;2966;52.598;10.928;2022-07-22T11:53:56;19.30;99.90
5881;DHT22;2966;52.598;10.928;2022-07-22T11:56:25;19.40;99.90
5881;DHT22;2966;52.598;10.928;2022-07-22T11:58:53;19.50;99.90
5881;DHT22;2966;52.598;10.928;2022-07-22T12:01:23;19.70;99.90
5881;DHT22;2966;52.598;10.928;2022-07-22T12:03:52;20.00;99.90
5881;DHT22;2966;52.598;10.928;2022-07-22T12:06:21;20.20;99.90
5881;DHT22;2966;52.598;10.928;2022-07-22T12:08:50;20.30;99.90
5881;DHT22;2966;52.598;10.928;2022-07-22T12:11:18;20.30;99.90
5881;DHT22;2966;52.598;10.928;2022-07-22T12:13:49;20.20;99.90
5881;DHT22;2966;52.598;10.928;2022-07-22T12:16:18;20.40;99.90
5881;DHT22;2966;52.598;10.928;2022-07-22T12:18:51;20.30;99.90
5881;DHT22;2966;52.598;10.928;2022-07-22T12:21:19;20.20;99.90
5881;DHT22;2966;52.598;10.928;2022-07-22T12:23:50;20.10;99.90
5881;DHT22;2966;52.598;10.928;2022-07-22T12:26:17;19.90;99.90
5881;DHT22;2966;52.598;10.928;2022-07-22T12:28:44;19.80;99.90
5881;DHT22;2966;52.598;10.928;2022-07-22T12:31:12;19.80;99.90
5881;DHT22;2966;52.598;10.928;2022-07-22T12:33:47;19.80;99.90
5881;DHT22;2966;52.598;10.928;2022-07-22T12:36:14;20.00;99.90
5881;DHT22;2966;52.598;10.928;2022-07-22T12:38:42;19.90;99.90
5881;DHT22;2966;52.598;10.928;2022-07-22T12:41:25;19.90;99.90
5881;DHT22;2966;52.598;10.928;2022-07-22T12:43:54;19.80;99.90
5881;DHT22;2966;52.598;10.928;2022-07-22T12:46:22;20.00;99.90
5881;DHT22;2966;52.598;10.928;2022-07-22T12:48:51;20.10;99.90
5881;DHT22;2966;52.598;10.928;2022-07-22T12:51:18;20.10;99.90
5881;DHT22;2966;52.598;10.928;2022-07-22T12:53:45;20.10;99.90
5881;DHT22;2966;52.598;10.928;2022-07-22T12:56:12;20.10;99.90
5881;DHT22;2966;52.598;10.928;2022-07-22T12:58:39;20.10;99.90
5881;DHT22;2966;52.598;10.928;2022-07-22T13:01:07;20.20;99.90
5881;DHT22;2966;52.598;10.928;2022-07-22T13:03:36;20.20;99.90
5881;DHT22;2966;52.598;10.928;2022-07-22T13:06:04;20.20;99.90
5881;DHT22;2966;52.598;10.928;2022-07-22T13:08:32;20.30;99.90
5881;DHT22;2966;52.598;10.928;2022-07-22T13:10:59;20.40;99.90
5881;DHT22;2966;52.598;10.928;2022-07-22T13:13:26;20.50;99.90
5881;DHT22;2966;52.598;10.928;2022-07-22T13:15:53;20.50;99.90
5881;DHT22;2966;52.598;10.928;2022-07-22T13:18:23;20.40;99.90
5881;DHT22;2966;52.598;10.928;2022-07-22T13:20:51;20.70;99.90
5881;DHT22;2966;52.598;10.928;2022-07-22T13:23:18;20.80;99.90
5881;DHT22;2966;52.598;10.928;2022-07-22T13:25:44;20.90;99.90
5881;DHT22;2966;52.598;10.928;2022-07-22T13:28:11;20.80;99.90
5881;DHT22;2966;52.598;10.928;2022-07-22T13:30:38;20.90;99.90
5881;DHT22;2966;52.598;10.928;2022-07-22T13:33:05;20.90;99.90
5881;DHT22;2966;52.598;10.928;2022-07-22T13:35:32;20.80;99.90
5881;DHT22;2966;52.598;10.928;2022-07-22T13:38:03;20.70;99.90
5881;DHT22;2966;52.598;10.928;2022-07-22T13:40:32;20.70;99.90
5881;DHT22;2966;52.598;10.928;2022-07-22T13:42:59;20.80;99.90
5881;DHT22;2966;52.598;10.928;2022-07-22T13:45:26;20.70;99.90
5881;DHT22;2966;52.598;10.928;2022-07-22T13:47:55;20.80;99.90
5881;DHT22;2966;52.598;10.928;2022-07-22T13:50:22;20.90;99.90
5881;DHT22;2966;52.598;10.928;2022-07-22T13:52:51;20.80;99.90
5881;DHT22;2966;52.598;10.928;2022-07-22T13:55:20;20.90;99.90
5881;DHT22;2966;52.598;10.928;2022-07-22T13:57:46;21.00;99.90
5881;DHT22;2966;52.598;10.928;2022-07-22T14:00:14;20.80;99.90
5881;DHT22;2966;52.598;10.928;2022-07-22T14:02:42;20.80;99.90
5881;DHT22;2966;52.598;10.928;2022-07-22T14:05:09;20.80;99.90
5881;DHT22;2966;52.598;10.928;2022-07-22T14:07:36;20.90;99.90
5881;DHT22;2966;52.598;10.928;2022-07-22T14:10:04;20.70;99.90
5881;DHT22;2966;52.598;10.928;2022-07-22T14:12:32;20.70;99.90
5881;DHT22;2966;52.598;10.928;2022-07-22T14:14:59;20.70;99.90
5881;DHT22;2966;52.598;10.928;2022-07-22T14:17:25;20.60;99.90
5881;DHT22;2966;52.598;10.928;2022-07-22T14:19:52;20.60;99.90
5881;DHT22;2966;52.598;10.928;2022-07-22T14:22:20;20.70;99.90
5881;DHT22;2966;52.598;10.928;2022-07-22T14:24:46;20.70;99.90
5881;DHT22;2966;52.598;10.928;2022-07-22T14:27:13;20.70;99.90
5881;DHT22;2966;52.598;10.928;2022-07-22T14:29:41;20.80;99.90
5881;DHT22;2966;52.598;10.928;2022-07-22T14:32:08;20.90;99.90
5881;DHT22;2966;52.598;10.928;2022-07-22T14:34:35;20.70;99.90
5881;DHT22;2966;52.598;10.928;2022-07-22T14:37:04;20.50;99.90
5881;DHT22;2966;52.598;10.928;2022-07-22T14:39:31;20.30;99.90
5881;DHT22;2966;52.598;10.928;2022-07-22T14:41:58;20.90;99.90
5881;DHT22;2966;52.598;10.928;2022-07-22T14:44:24;21.70;99.90
5881;DHT22;2966;52.598;10.928;2022-07-22T14:46:52;22.20;99.90
5881;DHT22;2966;52.598;10.928;2022-07-22T14:49:19;22.60;99.90
5881;DHT22;2966;52.598;10.928;2022-07-22T14:51:46;22.60;99.90
5881;DHT22;2966;52.598;10.928;2022-07-22T14:54:13;23.00;99.90
5881;DHT22;2966;52.598;10.928;2022-07-22T14:56:40;22.70;99.90
5881;DHT22;2966;52.598;10.928;2022-07-22T14:59:08;22.60;99.90
5881;DHT22;2966;52.598;10.928;2022-07-22T15:01:34;22.30;99.90
5881;DHT22;2966;52.598;10.928;2022-07-22T15:04:03;21.50;99.90
5881;DHT22;2966;52.598;10.928;2022-07-22T15:06:29;21.20;99.90
5881;DHT22;2966;52.598;10.928;2022-07-22T15:08:56;21.30;99.90
5881;DHT22;2966;52.598;10.928;2022-07-22T15:11:23;21.50;99.90
5881;DHT22;2966;52.598;10.928;2022-07-22T15:13:50;21.30;99.90
5881;DHT22;2966;52.598;10.928;2022-07-22T15:16:18;21.30;99.90
5881;DHT22;2966;52.598;10.928;2022-07-22T15:18:49;21.10;99.90
5881;DHT22;2966;52.598;10.928;2022-07-22T15:21:17;21.00;99.90
5881;DHT22;2966;52.598;10.928;2022-07-22T15:23:45;21.40;99.90
5881;DHT22;2966;52.598;10.928;2022-07-22T15:26:12;21.50;99.90
5881;DHT22;2966;52.598;10.928;2022-07-22T15:28:39;21.60;99.90
5881;DHT22;2966;52.598;10.928;2022-07-22T15:31:08;22.50;99.90
5881;DHT22;2966;52.598;10.928;2022-07-22T15:33:39;23.00;99.90
5881;DHT22;2966;52.598;10.928;2022-07-22T15:36:07;23.40;99.90
5881;DHT22;2966;52.598;10.928;2022-07-22T15:38:37;23.40;99.90
5881;DHT22;2966;52.598;10.928;2022-07-22T15:41:04;23.20;99.90
5881;DHT22;2966;52.598;10.928;2022-07-22T15:43:32;23.50;99.90
5881;DHT22;2966;52.598;10.928;2022-07-22T15:45:58;23.50;99.90
5881;DHT22;2966;52.598;10.928;2022-07-22T15:48:26;23.30;99.90
5881;DHT22;2966;52.598;10.928;2022-07-22T15:50:53;23.10;99.90
5881;DHT22;2966;52.598;10.928;2022-07-22T15:53:20;22.90;99.90